This is the latest recevied weather packets stored in our database for station/object AA7VG. If no packets are shown the sender has not sent any weather packets the latest 10 day(s).
| Time | Temp. | Humidity | Pressure | Rain* | Wind** | Luminosity | Snow |
|---|---|---|---|---|---|---|---|
| 1777489004 | 15° C | 32% | 1020.7 hPa | 0 mm | - | - | - |
| 1777488701 | 15.56° C | 32% | 1020.5 hPa | 0 mm | - | - | - |
| 1777488398 | 14.44° C | 35% | 1020.3 hPa | 0 mm | - | - | - |
| 1777488097 | 13.33° C | 38% | 1020.9 hPa | 0 mm | - | - | - |
| 1777487794 | 13.89° C | 36% | 1020.5 hPa | 0 mm | - | - | - |
| 1777487492 | 14.44° C | 35% | 1020.8 hPa | 0 mm | - | - | - |
| 1777487189 | 14.44° C | 37% | 1020.7 hPa | 0 mm | - | - | - |
| 1777486885 | 13.33° C | 39% | 1020.8 hPa | 0 mm | - | - | - |
| 1777486582 | 12.22° C | 43% | 1020.8 hPa | 0 mm | - | - | - |
| 1777486280 | 12.78° C | 39% | 1021 hPa | 0 mm | - | - | - |
| 1777485977 | 12.22° C | 46% | 1020.9 hPa | 0 mm | - | - | - |
| 1777485674 | 12.22° C | 46% | 1021.1 hPa | 0 mm | - | - | - |
| 1777485369 | 12.22° C | 44% | 1021 hPa | 0 mm | - | - | - |
| 1777485065 | 12.22° C | 44% | 1021.1 hPa | 0 mm | - | - | - |
| 1777484762 | 11.11° C | 46% | 1020.9 hPa | 0 mm | - | - | - |
| 1777484458 | 11.11° C | 46% | 1021.1 hPa | 0 mm | - | - | - |
| 1777484155 | 11.67° C | 45% | 1021 hPa | 0 mm | - | - | - |
| 1777483851 | 12.22° C | 44% | 1021.1 hPa | 0 mm | - | - | - |
| 1777483548 | 12.22° C | 45% | 1021.2 hPa | 0 mm | - | - | - |
| 1777483243 | 11.11° C | 49% | 1021.1 hPa | 0 mm | - | - | - |
| 1777482940 | 11.11° C | 49% | 1021 hPa | 0 mm | - | - | - |
| 1777482636 | 10.56° C | 50% | 1021.2 hPa | 0 mm | - | - | - |
| 1777482333 | 9.44° C | 56% | 1021.3 hPa | 0 mm | - | - | - |
| 1777482030 | 10° C | 52% | 1021.5 hPa | 0 mm | - | - | - |
| 1777481728 | 10° C | 53% | 1021.5 hPa | 0 mm | - | - | - |
* Rain latest hour (hover to see other rain measurements)
** Current wind speed in m/s (hover to see current wind gust speed)